createdAt,value
2019-03-29T00:00:28.256Z,9.3
2019-03-29T00:01:30.696Z,9.3
2019-03-29T00:02:33.602Z,9.3
2019-03-29T00:03:36.336Z,9.3
2019-03-29T00:04:38.377Z,9.3
2019-03-29T00:05:40.515Z,9.3
2019-03-29T00:06:42.550Z,9.3
2019-03-29T00:07:44.593Z,9.3
2019-03-29T00:08:46.656Z,9.3
2019-03-29T00:09:48.679Z,9.3
2019-03-29T00:10:50.999Z,9.3
2019-03-29T00:11:53.054Z,9.3
2019-03-29T00:12:55.097Z,9.3
2019-03-29T00:13:57.513Z,9.3
2019-03-29T00:14:59.865Z,9.3
2019-03-29T00:16:02.114Z,9.3
2019-03-29T00:17:04.751Z,9.3
2019-03-29T00:18:06.899Z,9.3
2019-03-29T00:19:08.976Z,9.3
2019-03-29T00:20:11.691Z,9.3
2019-03-29T00:21:14.319Z,9.3
2019-03-29T00:22:16.643Z,9.3
2019-03-29T00:23:18.919Z,9.3
2019-03-29T00:24:21.423Z,9.3
2019-03-29T00:25:23.759Z,9.3
2019-03-29T00:26:26.760Z,9.3
2019-03-29T00:27:28.851Z,9.3
2019-03-29T00:28:31.370Z,9.3
2019-03-29T00:29:33.697Z,9.3
2019-03-29T00:30:36.034Z,9.4
2019-03-29T00:31:38.266Z,9.3
2019-03-29T00:32:42.171Z,9.4
2019-03-29T00:33:44.233Z,9.3
2019-03-29T00:34:46.286Z,9.3
2019-03-29T00:35:48.329Z,9.3
2019-03-29T00:36:52.263Z,9.4
2019-03-29T00:37:57.106Z,9.4
2019-03-29T00:38:59.459Z,9.4
2019-03-29T00:40:01.792Z,9.4
2019-03-29T00:41:06.442Z,9.4
2019-03-29T00:42:16.919Z,9.3
2019-03-29T00:43:26.900Z,9.3
2019-03-29T00:44:35.703Z,9.4
2019-03-29T00:45:48.287Z,9.4
2019-03-29T00:46:58.712Z,9.4
2019-03-29T00:48:08.189Z,9.3
2019-03-29T00:49:20.732Z,9.3
2019-03-29T00:50:29.901Z,9.3
2019-03-29T00:51:38.904Z,9.3
2019-03-29T00:52:49.400Z,9.3
2019-03-29T00:54:02.365Z,9.3
2019-03-29T00:55:10.995Z,9.4
2019-03-29T00:56:21.090Z,9.4
2019-03-29T00:57:24.696Z,9.3
2019-03-29T00:58:27.017Z,9.3
2019-03-29T00:59:29.063Z,9.3
2019-03-29T01:00:34.575Z,9.3
2019-03-29T01:01:38.424Z,9.3
2019-03-29T01:02:40.623Z,9.3
2019-03-29T01:03:43.715Z,9.3
2019-03-29T01:04:45.936Z,9.3
2019-03-29T01:05:49.455Z,9.3
2019-03-29T01:06:51.511Z,9.3
2019-03-29T01:08:11.488Z,9.3
2019-03-29T01:09:13.543Z,9.3
2019-03-29T01:10:15.580Z,9.3
2019-03-29T01:11:17.628Z,9.3
2019-03-29T01:12:19.955Z,9.3
2019-03-29T01:13:22.398Z,9.2
2019-03-29T01:14:24.708Z,9.3
2019-03-29T01:15:26.744Z,9.3
2019-03-29T01:16:29.066Z,9.3
2019-03-29T01:17:31.109Z,9.3
2019-03-29T01:18:33.158Z,9.3
2019-03-29T01:19:35.214Z,9.3
2019-03-29T01:20:37.253Z,9.3
2019-03-29T01:21:41.029Z,9.2
2019-03-29T01:22:43.091Z,9.3
2019-03-29T01:23:45.400Z,9.2
2019-03-29T01:24:47.450Z,9.3
2019-03-29T01:25:49.765Z,9.3
2019-03-29T01:26:53.351Z,9.3
2019-03-29T01:27:55.419Z,9.3
2019-03-29T01:28:57.738Z,9.2
2019-03-29T01:30:00.096Z,9.2
2019-03-29T01:31:02.187Z,9.2
2019-03-29T01:32:04.249Z,9.2
2019-03-29T01:33:06.294Z,9.2
2019-03-29T01:34:08.320Z,9.2
2019-03-29T01:35:10.617Z,9.2
2019-03-29T01:36:12.647Z,9.2
2019-03-29T01:37:15.087Z,9.2
2019-03-29T01:38:25.389Z,9.2
2019-03-29T01:39:27.427Z,9.2
2019-03-29T01:40:29.477Z,9.2
2019-03-29T01:41:31.523Z,9.1
2019-03-29T01:42:33.666Z,9.2
2019-03-29T01:43:37.073Z,9.2
2019-03-29T01:44:39.117Z,9.2
2019-03-29T01:45:41.155Z,9.2
2019-03-29T01:46:43.202Z,9.1
2019-03-29T01:47:45.522Z,9.2
2019-03-29T01:48:49.038Z,9.2
2019-03-29T01:49:51.252Z,9.2
2019-03-29T01:50:53.682Z,9.2
2019-03-29T01:51:55.735Z,9.1
2019-03-29T01:52:58.181Z,9.1
2019-03-29T01:54:00.212Z,9.1
2019-03-29T01:55:02.260Z,9.1
2019-03-29T01:56:04.314Z,9.1
2019-03-29T01:57:07.862Z,9.1
2019-03-29T01:58:10.213Z,9.1
2019-03-29T01:59:12.247Z,9.1
2019-03-29T02:00:14.270Z,9.1
2019-03-29T02:01:16.614Z,9.1
2019-03-29T02:02:18.672Z,9.1
2019-03-29T02:03:20.724Z,9.1
2019-03-29T02:04:22.752Z,9.1
2019-03-29T02:05:25.487Z,9.1
2019-03-29T02:06:27.524Z,9.1
2019-03-29T02:07:29.567Z,9.1
2019-03-29T02:08:38.814Z,9.1
2019-03-29T02:09:40.834Z,9.1
2019-03-29T02:10:42.871Z,9
2019-03-29T02:11:45.307Z,9
2019-03-29T02:12:47.743Z,9
2019-03-29T02:13:49.782Z,9
2019-03-29T02:14:52.484Z,9
2019-03-29T02:15:54.561Z,9
2019-03-29T02:16:57.138Z,9
2019-03-29T02:17:59.638Z,9.1
2019-03-29T02:19:01.682Z,9.1
2019-03-29T02:20:03.793Z,9
2019-03-29T02:21:05.861Z,9
2019-03-29T02:22:09.571Z,9
2019-03-29T02:23:11.604Z,9
2019-03-29T02:24:13.643Z,9
2019-03-29T02:25:17.251Z,9.1
2019-03-29T02:26:19.303Z,9
2019-03-29T02:27:21.345Z,9
2019-03-29T02:28:23.384Z,9
2019-03-29T02:29:25.448Z,9
2019-03-29T02:30:28.157Z,9
2019-03-29T02:31:30.404Z,9
2019-03-29T02:32:32.454Z,8.9
2019-03-29T02:33:34.494Z,8.9
2019-03-29T02:34:37.240Z,9
2019-03-29T02:35:40.310Z,9
2019-03-29T02:36:42.367Z,9
2019-03-29T02:37:45.134Z,9
2019-03-29T02:38:59.964Z,9
2019-03-29T02:40:02.534Z,9
2019-03-29T02:41:04.678Z,9
2019-03-29T02:42:07.603Z,8.9
2019-03-29T02:43:12.028Z,8.9
2019-03-29T02:44:14.421Z,8.9
2019-03-29T02:45:16.790Z,8.9
2019-03-29T02:46:19.239Z,8.9
2019-03-29T02:47:22.902Z,8.9
2019-03-29T02:48:25.241Z,8.9
2019-03-29T02:49:27.862Z,8.9
2019-03-29T02:50:30.778Z,8.9
2019-03-29T02:51:34.190Z,8.9
2019-03-29T02:52:36.262Z,8.9
2019-03-29T02:53:38.332Z,8.9
2019-03-29T02:54:40.948Z,8.9
2019-03-29T02:55:43.274Z,8.9
2019-03-29T02:56:45.359Z,8.9
2019-03-29T02:57:47.681Z,8.9
2019-03-29T02:58:49.751Z,8.9
2019-03-29T02:59:51.806Z,8.9
2019-03-29T03:00:53.891Z,8.9
2019-03-29T03:01:56.353Z,8.9
2019-03-29T03:02:59.016Z,8.9
2019-03-29T03:04:01.349Z,8.9
2019-03-29T03:05:03.806Z,8.9
2019-03-29T03:06:06.181Z,8.9
2019-03-29T03:07:08.628Z,8.9
2019-03-29T03:08:10.697Z,8.9
2019-03-29T03:09:16.210Z,8.8
2019-03-29T03:10:18.377Z,8.9
2019-03-29T03:11:20.425Z,8.9
2019-03-29T03:12:22.911Z,8.9
2019-03-29T03:13:24.985Z,8.9
2019-03-29T03:14:27.332Z,8.9
2019-03-29T03:15:30.658Z,8.9
2019-03-29T03:16:32.719Z,8.9
2019-03-29T03:17:35.169Z,8.9
2019-03-29T03:18:37.816Z,8.9
2019-03-29T03:19:39.881Z,8.9
2019-03-29T03:20:41.937Z,8.9
2019-03-29T03:21:44.593Z,8.9
2019-03-29T03:22:47.057Z,8.9
2019-03-29T03:23:49.428Z,8.9
2019-03-29T03:24:51.821Z,9
2019-03-29T03:25:54.587Z,8.9
2019-03-29T03:26:57.296Z,8.9
2019-03-29T03:27:59.918Z,8.9
2019-03-29T03:29:02.532Z,8.9
2019-03-29T03:30:05.305Z,8.9
2019-03-29T03:31:07.390Z,8.9
2019-03-29T03:32:09.495Z,8.9
2019-03-29T03:33:12.111Z,8.9
2019-03-29T03:34:14.496Z,8.9
2019-03-29T03:35:16.935Z,8.9
2019-03-29T03:36:19.284Z,8.9
2019-03-29T03:37:21.663Z,8.9
2019-03-29T03:38:23.784Z,8.9
2019-03-29T03:39:34.337Z,8.9
2019-03-29T03:40:36.719Z,8.9
2019-03-29T03:41:39.615Z,8.9
2019-03-29T03:42:42.765Z,8.9
2019-03-29T03:43:46.064Z,8.9
2019-03-29T03:44:48.342Z,8.9
2019-03-29T03:45:50.669Z,8.9
2019-03-29T03:46:53.007Z,8.9
2019-03-29T03:47:55.067Z,8.9
2019-03-29T03:48:57.404Z,8.9
2019-03-29T03:50:02.902Z,8.9
2019-03-29T03:51:05.653Z,8.9
2019-03-29T03:52:07.804Z,8.9
2019-03-29T03:53:10.548Z,8.9
2019-03-29T03:54:12.991Z,8.9
2019-03-29T03:55:15.641Z,8.9
2019-03-29T03:56:17.720Z,8.9
2019-03-29T03:57:20.093Z,8.9
2019-03-29T03:58:22.741Z,8.9
2019-03-29T03:59:25.090Z,9
2019-03-29T04:00:27.168Z,8.9
2019-03-29T04:01:29.211Z,8.9
2019-03-29T04:02:31.934Z,8.9
2019-03-29T04:03:34.310Z,8.9
2019-03-29T04:04:39.074Z,8.9
2019-03-29T04:05:41.457Z,8.9
2019-03-29T04:06:43.805Z,8.9
2019-03-29T04:07:46.147Z,8.9
2019-03-29T04:08:48.232Z,8.9
2019-03-29T04:09:51.803Z,8.9
2019-03-29T04:10:53.883Z,8.9
2019-03-29T04:11:56.638Z,8.9
2019-03-29T04:12:58.982Z,8.9
2019-03-29T04:14:01.071Z,8.9
2019-03-29T04:15:03.952Z,8.9
2019-03-29T04:16:06.795Z,8.9
2019-03-29T04:17:09.228Z,8.9
2019-03-29T04:18:17.384Z,8.9
2019-03-29T04:19:19.785Z,9
2019-03-29T04:20:22.550Z,9
2019-03-29T04:21:25.203Z,8.9
2019-03-29T04:22:27.630Z,8.9
2019-03-29T04:23:29.706Z,8.9
2019-03-29T04:24:32.133Z,8.9
2019-03-29T04:25:34.471Z,8.9
2019-03-29T04:26:36.524Z,8.9
2019-03-29T04:27:39.862Z,8.9
2019-03-29T04:28:42.339Z,8.9
2019-03-29T04:29:44.427Z,8.9
2019-03-29T04:30:46.475Z,8.9
2019-03-29T04:31:48.878Z,8.9
2019-03-29T04:32:51.305Z,8.9
2019-03-29T04:33:53.378Z,8.9
2019-03-29T04:34:56.002Z,8.9
2019-03-29T04:35:58.451Z,8.9
2019-03-29T04:37:01.067Z,8.9
2019-03-29T04:38:03.813Z,8.9
2019-03-29T04:39:06.503Z,8.9
2019-03-29T04:40:11.077Z,8.9
2019-03-29T04:41:13.117Z,8.9
2019-03-29T04:42:15.149Z,8.9
2019-03-29T04:43:17.244Z,8.9
2019-03-29T04:44:19.844Z,8.9
2019-03-29T04:45:21.901Z,9
2019-03-29T04:46:23.963Z,8.9
2019-03-29T04:47:26.576Z,8.9
2019-03-29T04:48:29.308Z,8.9
2019-03-29T04:49:31.383Z,8.9
2019-03-29T04:50:33.435Z,8.9
2019-03-29T04:51:35.767Z,8.9
2019-03-29T04:52:37.839Z,8.9
2019-03-29T04:53:39.875Z,8.9
2019-03-29T04:54:41.913Z,9
2019-03-29T04:55:43.981Z,9
2019-03-29T04:56:46.068Z,9
2019-03-29T04:57:48.498Z,9
2019-03-29T04:58:50.555Z,9
2019-03-29T04:59:52.593Z,9
2019-03-29T05:00:56.241Z,9
2019-03-29T05:01:58.287Z,9
2019-03-29T05:03:00.337Z,9
2019-03-29T05:04:02.371Z,9
2019-03-29T05:05:04.425Z,9
2019-03-29T05:06:06.756Z,8.9
2019-03-29T05:07:08.802Z,9
2019-03-29T05:08:10.865Z,9
2019-03-29T05:09:12.895Z,8.9
2019-03-29T05:10:22.897Z,8.9
2019-03-29T05:11:24.942Z,8.9
2019-03-29T05:12:27.322Z,8.9
2019-03-29T05:13:29.655Z,8.9
2019-03-29T05:14:31.697Z,8.9
2019-03-29T05:15:34.151Z,8.9
2019-03-29T05:16:36.452Z,9
2019-03-29T05:17:38.585Z,8.9
2019-03-29T05:18:40.913Z,9
2019-03-29T05:19:45.681Z,9
2019-03-29T05:20:47.803Z,9
2019-03-29T05:21:50.683Z,9
2019-03-29T05:22:52.726Z,8.9
2019-03-29T05:23:54.779Z,9
2019-03-29T05:24:56.925Z,8.9
2019-03-29T05:25:59.035Z,8.9
2019-03-29T05:27:01.081Z,9
2019-03-29T05:28:03.117Z,9
2019-03-29T05:29:05.593Z,8.9
2019-03-29T05:30:07.620Z,8.9
2019-03-29T05:31:09.656Z,9
2019-03-29T05:32:11.984Z,8.9
2019-03-29T05:33:14.327Z,9
2019-03-29T05:34:16.651Z,9
2019-03-29T05:35:18.694Z,9
2019-03-29T05:36:20.763Z,9
2019-03-29T05:37:22.809Z,9
2019-03-29T05:38:24.861Z,9
2019-03-29T05:39:27.189Z,9
2019-03-29T05:40:36.752Z,9
2019-03-29T05:41:38.807Z,9
2019-03-29T05:42:40.845Z,8.9
2019-03-29T05:43:43.162Z,8.9
2019-03-29T05:44:45.487Z,8.9
2019-03-29T05:45:47.525Z,8.9
2019-03-29T05:46:49.575Z,8.9
2019-03-29T05:47:51.940Z,9
2019-03-29T05:48:54.273Z,9
2019-03-29T05:49:56.332Z,9
2019-03-29T05:50:58.447Z,9
2019-03-29T05:52:00.833Z,9
2019-03-29T05:53:03.297Z,9
2019-03-29T05:54:05.362Z,9
2019-03-29T05:55:07.392Z,9
2019-03-29T05:56:09.444Z,9.1
2019-03-29T05:57:11.471Z,9
2019-03-29T05:58:13.526Z,9
2019-03-29T05:59:15.556Z,9.1
2019-03-29T06:00:17.589Z,9.1
2019-03-29T06:01:19.928Z,9.1
2019-03-29T06:02:22.236Z,9.1
2019-03-29T06:03:24.288Z,9.1
2019-03-29T06:04:26.373Z,9.1
2019-03-29T06:05:28.986Z,9
2019-03-29T06:06:31.051Z,9
2019-03-29T06:07:33.138Z,9.1
2019-03-29T06:08:35.176Z,9.1
2019-03-29T06:09:37.229Z,9.1
2019-03-29T06:10:50.746Z,9.1
2019-03-29T06:11:52.776Z,9.1
2019-03-29T06:12:54.832Z,9.1
2019-03-29T06:13:56.912Z,9.1
2019-03-29T06:14:58.931Z,9.1
2019-03-29T06:16:00.979Z,9.2
2019-03-29T06:17:03.682Z,9.2
2019-03-29T06:18:06.014Z,9.2
2019-03-29T06:19:08.057Z,9.2
2019-03-29T06:20:10.481Z,9.2
2019-03-29T06:21:12.911Z,9.2
2019-03-29T06:22:14.945Z,9.2
2019-03-29T06:23:16.995Z,9.3
2019-03-29T06:24:19.309Z,9.3
2019-03-29T06:25:21.397Z,9.2
2019-03-29T06:26:24.398Z,9.2
2019-03-29T06:27:26.432Z,9.2
2019-03-29T06:28:31.056Z,9.2
2019-03-29T06:29:33.088Z,9.3
2019-03-29T06:30:35.132Z,9.3
2019-03-29T06:31:37.154Z,9.3
2019-03-29T06:32:39.211Z,9.3
2019-03-29T06:33:44.975Z,9.3
2019-03-29T06:34:47.014Z,9.3
2019-03-29T06:35:49.076Z,9.3
2019-03-29T06:36:51.195Z,9.3
2019-03-29T06:37:53.900Z,9.3
2019-03-29T06:38:55.951Z,9.3
2019-03-29T06:39:58.283Z,9.3
2019-03-29T06:41:04.637Z,9.4
2019-03-29T06:42:06.690Z,9.4
2019-03-29T06:43:08.737Z,9.4
2019-03-29T06:44:10.787Z,9.4
2019-03-29T06:45:12.887Z,9.4
2019-03-29T06:46:14.946Z,9.3
2019-03-29T06:47:16.990Z,9.4
2019-03-29T06:48:19.018Z,9.5
2019-03-29T06:49:21.056Z,9.5
2019-03-29T06:50:23.138Z,9.6
2019-03-29T06:51:25.210Z,9.6
2019-03-29T06:52:27.829Z,9.6
2019-03-29T06:53:30.657Z,9.5
2019-03-29T06:54:33.135Z,9.6
2019-03-29T06:55:35.445Z,9.5
2019-03-29T06:56:37.503Z,9.6
2019-03-29T06:57:39.917Z,9.6
2019-03-29T06:58:42.249Z,9.7
2019-03-29T06:59:44.289Z,9.7
2019-03-29T07:00:48.232Z,9.7
2019-03-29T07:01:50.296Z,9.7
2019-03-29T07:02:52.333Z,9.7
2019-03-29T07:03:54.373Z,9.8
2019-03-29T07:04:56.391Z,9.9
2019-03-29T07:05:58.442Z,9.9
2019-03-29T07:07:00.491Z,9.8
2019-03-29T07:08:02.819Z,9.9
2019-03-29T07:09:04.869Z,9.9
2019-03-29T07:10:07.175Z,9.9
2019-03-29T07:11:19.391Z,9.9
2019-03-29T07:12:21.450Z,9.9
2019-03-29T07:13:23.497Z,9.9
2019-03-29T07:14:25.532Z,9.9
2019-03-29T07:15:27.576Z,9.9
2019-03-29T07:16:29.617Z,10
2019-03-29T07:17:31.674Z,10
2019-03-29T07:18:33.727Z,10
2019-03-29T07:19:35.764Z,10
2019-03-29T07:20:37.812Z,9.9
2019-03-29T07:21:39.829Z,10
2019-03-29T07:22:41.870Z,9.9
2019-03-29T07:23:43.911Z,10
2019-03-29T07:24:45.944Z,10
2019-03-29T07:25:48.396Z,10
2019-03-29T07:26:51.140Z,10.1
2019-03-29T07:27:53.654Z,10.1
2019-03-29T07:28:55.977Z,10.1
2019-03-29T07:29:58.340Z,10.1
2019-03-29T07:31:00.367Z,10.1
2019-03-29T07:32:02.408Z,10.1
2019-03-29T07:33:04.461Z,10.1
2019-03-29T07:34:06.878Z,10.1
2019-03-29T07:35:08.935Z,10.1
2019-03-29T07:36:10.973Z,10.2
2019-03-29T07:37:13.317Z,10.2
2019-03-29T07:38:15.341Z,10.2
2019-03-29T07:39:17.392Z,10.2
2019-03-29T07:40:19.429Z,10.2
2019-03-29T07:41:33.943Z,10.2
2019-03-29T07:42:35.994Z,10.2
2019-03-29T07:43:38.029Z,10.3
2019-03-29T07:44:40.076Z,10.3
2019-03-29T07:45:42.115Z,10.3
2019-03-29T07:46:44.155Z,10.3
2019-03-29T07:47:46.188Z,10.3
2019-03-29T07:48:48.511Z,10.4
2019-03-29T07:49:50.895Z,10.4
2019-03-29T07:50:52.945Z,10.4
2019-03-29T07:51:54.992Z,10.4
2019-03-29T07:52:57.031Z,10.4
2019-03-29T07:53:59.061Z,10.5
2019-03-29T07:55:01.656Z,10.5
2019-03-29T07:56:03.694Z,10.5
2019-03-29T07:57:06.128Z,10.5
2019-03-29T07:58:08.164Z,10.5
2019-03-29T07:59:10.211Z,10.6
2019-03-29T08:00:12.242Z,10.6
2019-03-29T08:01:14.650Z,10.7
2019-03-29T08:02:16.692Z,10.6
2019-03-29T08:03:24.506Z,10.7
2019-03-29T08:04:26.914Z,10.7
2019-03-29T08:05:28.955Z,10.6
2019-03-29T08:06:31.001Z,10.7
2019-03-29T08:07:34.668Z,10.6
2019-03-29T08:08:36.724Z,10.6
2019-03-29T08:09:38.764Z,10.6
2019-03-29T08:10:41.385Z,10.6
2019-03-29T08:11:48.373Z,10.7
2019-03-29T08:12:51.154Z,10.6
2019-03-29T08:13:53.212Z,10.8
2019-03-29T08:14:55.254Z,10.7
2019-03-29T08:15:57.304Z,10.8
2019-03-29T08:16:59.639Z,10.8
2019-03-29T08:18:03.235Z,10.8
2019-03-29T08:19:05.290Z,10.8
2019-03-29T08:20:45.493Z,10.8
2019-03-29T08:21:47.528Z,10.7
2019-03-29T08:22:49.737Z,10.7
2019-03-29T08:23:51.799Z,10.7
2019-03-29T08:24:53.835Z,10.8
2019-03-29T08:25:56.282Z,10.7
2019-03-29T08:26:58.325Z,10.8
2019-03-29T08:28:00.432Z,10.8
2019-03-29T08:29:02.774Z,10.9
2019-03-29T08:30:05.472Z,10.8
2019-03-29T08:31:07.511Z,10.9
2019-03-29T08:32:09.946Z,10.8
2019-03-29T08:33:12.031Z,10.8
2019-03-29T08:34:14.466Z,10.8
2019-03-29T08:35:16.787Z,11
2019-03-29T08:36:18.845Z,11
2019-03-29T08:37:20.874Z,11
2019-03-29T08:38:22.983Z,11
2019-03-29T08:39:29.786Z,10.9
2019-03-29T08:40:31.822Z,10.9
2019-03-29T08:41:33.874Z,11
2019-03-29T08:42:35.900Z,11
2019-03-29T08:43:38.302Z,11
2019-03-29T08:44:40.939Z,11.1
2019-03-29T08:45:43.779Z,11.1
2019-03-29T08:46:47.501Z,11.2
2019-03-29T08:47:50.231Z,11.3
2019-03-29T08:48:53.281Z,11.4
2019-03-29T08:49:56.567Z,11.5
2019-03-29T08:50:59.814Z,11.6
2019-03-29T08:52:03.159Z,11.5
2019-03-29T08:53:05.992Z,11.5
2019-03-29T08:54:08.845Z,11.7
2019-03-29T08:55:12.469Z,11.8
2019-03-29T08:56:15.273Z,12
2019-03-29T08:57:18.060Z,12.1
2019-03-29T08:58:20.697Z,11.9
2019-03-29T08:59:23.575Z,12.2
2019-03-29T09:00:26.521Z,12.4
2019-03-29T09:01:29.122Z,12.6
2019-03-29T09:02:32.040Z,12.3
2019-03-29T09:03:34.409Z,12.7
2019-03-29T09:04:36.541Z,12.8
2019-03-29T09:05:40.423Z,12.8
2019-03-29T09:06:55.990Z,12.6
2019-03-29T09:07:58.028Z,12.9
2019-03-29T09:09:00.348Z,13.3
2019-03-29T09:10:02.778Z,13.2
2019-03-29T09:11:08.999Z,13.2
2019-03-29T09:12:16.669Z,13.1
2019-03-29T09:13:19.141Z,13
2019-03-29T09:14:21.877Z,13.1
2019-03-29T09:15:24.310Z,13
2019-03-29T09:16:26.356Z,13.3
2019-03-29T09:17:28.408Z,13.6
2019-03-29T09:18:30.445Z,13.5
2019-03-29T09:19:32.567Z,13.6
2019-03-29T09:20:35.845Z,13.6
2019-03-29T09:21:37.908Z,13.7
2019-03-29T09:22:39.961Z,13.5
2019-03-29T09:23:42.386Z,13.5
2019-03-29T09:24:44.456Z,13.6
2019-03-29T09:25:46.778Z,13.6
2019-03-29T09:26:48.820Z,13.6
2019-03-29T09:27:50.863Z,13.7
2019-03-29T09:28:52.930Z,13.8
2019-03-29T09:29:55.284Z,13.5
2019-03-29T09:30:58.287Z,13.2
2019-03-29T09:32:00.434Z,13.2
2019-03-29T09:33:02.751Z,13
2019-03-29T09:34:05.096Z,13.1
2019-03-29T09:35:07.155Z,13.1
2019-03-29T09:36:09.476Z,13.1
2019-03-29T09:37:11.534Z,12.9
2019-03-29T09:38:13.581Z,12.9
2019-03-29T09:39:15.681Z,13
2019-03-29T09:40:18.024Z,13
2019-03-29T09:41:20.080Z,13
2019-03-29T09:42:31.473Z,12.9
2019-03-29T09:43:33.836Z,12.8
2019-03-29T09:44:36.183Z,12.9
2019-03-29T09:45:41.975Z,12.9
2019-03-29T09:46:48.199Z,13
2019-03-29T09:47:51.979Z,12.9
2019-03-29T09:48:56.588Z,12.8
2019-03-29T09:49:58.647Z,12.8
2019-03-29T09:51:01.120Z,12.6
2019-03-29T09:52:04.062Z,12.6
2019-03-29T09:53:06.095Z,12.7
2019-03-29T09:54:08.172Z,12.6
2019-03-29T09:55:10.218Z,12.7
2019-03-29T09:56:12.267Z,12.7
2019-03-29T09:57:16.681Z,12.7
2019-03-29T09:58:18.736Z,12.7
2019-03-29T09:59:25.059Z,12.7
2019-03-29T10:00:27.095Z,12.7
2019-03-29T10:01:30.277Z,12.8
2019-03-29T10:02:32.573Z,12.8
2019-03-29T10:03:34.649Z,12.8
2019-03-29T10:04:36.696Z,12.7
2019-03-29T10:05:39.029Z,12.8
2019-03-29T10:06:41.072Z,12.8
2019-03-29T10:07:43.117Z,12.7
2019-03-29T10:08:45.184Z,12.6
2019-03-29T10:09:47.212Z,12.7
2019-03-29T10:10:49.931Z,12.8
2019-03-29T10:11:51.976Z,12.8
2019-03-29T10:12:54.017Z,12.9
2019-03-29T10:13:56.082Z,12.9
2019-03-29T10:14:58.120Z,13
2019-03-29T10:16:00.230Z,12.9
2019-03-29T10:17:02.301Z,12.8
2019-03-29T10:18:04.378Z,12.8
2019-03-29T10:19:06.691Z,12.8
2019-03-29T10:20:08.820Z,12.8
2019-03-29T10:21:10.886Z,12.9
2019-03-29T10:22:13.394Z,12.9
2019-03-29T10:23:15.451Z,13
2019-03-29T10:24:17.790Z,12.9
2019-03-29T10:25:22.318Z,12.9
2019-03-29T10:26:24.671Z,13
2019-03-29T10:27:26.724Z,13.1
2019-03-29T10:28:28.771Z,13.1
2019-03-29T10:29:31.190Z,13.1
2019-03-29T10:30:33.240Z,13.1
2019-03-29T10:31:35.282Z,13.2
2019-03-29T10:32:37.327Z,13.2
2019-03-29T10:33:39.684Z,13.2
2019-03-29T10:34:41.721Z,13.3
2019-03-29T10:35:53.945Z,13.3
2019-03-29T10:36:55.998Z,13.3
2019-03-29T10:37:58.050Z,13.3
2019-03-29T10:39:00.106Z,13.2
2019-03-29T10:40:02.553Z,13.2
2019-03-29T10:41:04.606Z,13.3
2019-03-29T10:42:07.260Z,13.3
2019-03-29T10:43:09.300Z,13.2
2019-03-29T10:44:11.423Z,13.2
2019-03-29T10:45:13.489Z,13.4
2019-03-29T10:46:15.535Z,13.4
2019-03-29T10:47:17.973Z,13.4
2019-03-29T10:48:20.028Z,13.4
2019-03-29T10:49:22.063Z,13.4
2019-03-29T10:50:24.098Z,13.4
2019-03-29T10:51:26.184Z,13.1
2019-03-29T10:52:28.508Z,13.2
2019-03-29T10:53:30.557Z,13.2
2019-03-29T10:54:32.634Z,13.2
2019-03-29T10:55:34.670Z,13.2
2019-03-29T10:56:36.723Z,13.2
2019-03-29T10:57:38.934Z,13.3
2019-03-29T10:58:40.987Z,13.3
2019-03-29T10:59:43.012Z,13.3
2019-03-29T11:00:45.069Z,13.4
2019-03-29T11:01:47.134Z,13.2
2019-03-29T11:02:49.181Z,13.3
2019-03-29T11:03:51.622Z,13.1
2019-03-29T11:04:54.331Z,13.2
2019-03-29T11:05:56.377Z,13.2
2019-03-29T11:06:58.485Z,13.4
2019-03-29T11:08:00.537Z,13.4
2019-03-29T11:09:02.581Z,13.4
2019-03-29T11:10:04.635Z,13.4
2019-03-29T11:11:06.667Z,13.4
2019-03-29T11:12:08.723Z,13.4
2019-03-29T11:13:15.665Z,13.5
2019-03-29T11:14:17.739Z,13.7
2019-03-29T11:15:19.803Z,13.7
2019-03-29T11:16:21.868Z,13.8
2019-03-29T11:17:23.903Z,13.8
2019-03-29T11:18:26.230Z,13.8
2019-03-29T11:19:28.282Z,13.6
2019-03-29T11:20:30.331Z,13.5
2019-03-29T11:21:32.387Z,13.6
2019-03-29T11:22:34.433Z,13.7
2019-03-29T11:23:36.773Z,13.8
2019-03-29T11:24:38.795Z,13.8
2019-03-29T11:25:40.897Z,13.8
2019-03-29T11:26:42.957Z,13.9
2019-03-29T11:27:45.286Z,13.9
2019-03-29T11:28:47.338Z,14
2019-03-29T11:29:49.391Z,13.9
2019-03-29T11:30:51.443Z,14.1
2019-03-29T11:31:53.530Z,14.1
2019-03-29T11:32:55.669Z,14
2019-03-29T11:33:57.728Z,14.1
2019-03-29T11:34:59.777Z,14.1
2019-03-29T11:36:01.830Z,14.1
2019-03-29T11:37:04.149Z,14.1
2019-03-29T11:38:06.209Z,14.3
2019-03-29T11:39:08.579Z,14.5
2019-03-29T11:40:10.897Z,14.7
2019-03-29T11:41:12.942Z,14.9
2019-03-29T11:42:14.997Z,15.1
2019-03-29T11:43:28.711Z,15.1
2019-03-29T11:44:31.459Z,15.1
2019-03-29T11:45:33.881Z,15
2019-03-29T11:46:36.315Z,15.1
2019-03-29T11:47:38.417Z,15
2019-03-29T11:48:40.472Z,15.2
2019-03-29T11:49:42.532Z,15.2
2019-03-29T11:50:44.662Z,15.3
2019-03-29T11:51:47.101Z,15.3
2019-03-29T11:52:49.179Z,15.1
2019-03-29T11:53:52.689Z,15.3
2019-03-29T11:54:54.747Z,15.3
2019-03-29T11:55:56.792Z,15.5
2019-03-29T11:56:58.852Z,15.7
2019-03-29T11:58:00.886Z,15.4
2019-03-29T11:59:02.943Z,15.3
2019-03-29T12:00:04.993Z,15.1
2019-03-29T12:01:07.445Z,15.1
2019-03-29T12:02:09.509Z,15.1
2019-03-29T12:03:11.553Z,15.1
2019-03-29T12:04:14.172Z,14.9
2019-03-29T12:05:16.219Z,15
2019-03-29T12:06:18.335Z,15.1
2019-03-29T12:07:20.395Z,15.2
2019-03-29T12:08:22.733Z,15.6
2019-03-29T12:09:24.781Z,15.6
2019-03-29T12:10:26.888Z,15.5
2019-03-29T12:11:28.941Z,15.6
2019-03-29T12:12:31.273Z,15.5
2019-03-29T12:13:42.839Z,15.9
2019-03-29T12:14:44.886Z,16.1
2019-03-29T12:15:46.951Z,16.2
2019-03-29T12:16:49.001Z,16.5
2019-03-29T12:17:51.742Z,16.7
2019-03-29T12:18:53.806Z,16.6
2019-03-29T12:19:55.843Z,16.1
2019-03-29T12:20:57.905Z,16.1
2019-03-29T12:21:59.973Z,16
2019-03-29T12:23:02.085Z,15.9
2019-03-29T12:24:04.140Z,16
2019-03-29T12:25:06.245Z,16.3
2019-03-29T12:26:08.686Z,16.8
2019-03-29T12:27:11.108Z,17
2019-03-29T12:28:13.160Z,17.1
2019-03-29T12:29:15.550Z,17.2
2019-03-29T12:30:33.919Z,17.4
2019-03-29T12:31:35.991Z,16.5
2019-03-29T12:32:38.061Z,16.6
2019-03-29T12:33:40.106Z,16.7
2019-03-29T12:34:42.153Z,16.7
2019-03-29T12:35:44.279Z,16.3
2019-03-29T12:36:47.199Z,16.6
2019-03-29T12:37:49.264Z,16.6
2019-03-29T12:38:51.613Z,16.5
2019-03-29T12:39:53.683Z,16.4
2019-03-29T12:40:55.723Z,16.8
2019-03-29T12:41:57.777Z,16.7
2019-03-29T12:42:59.832Z,16.7
2019-03-29T12:44:01.879Z,16.9
2019-03-29T12:45:04.519Z,17
2019-03-29T12:46:06.576Z,17.1
2019-03-29T12:47:08.928Z,17.2
2019-03-29T12:48:10.979Z,17.8
2019-03-29T12:49:13.049Z,17.9
2019-03-29T12:50:15.100Z,18
2019-03-29T12:51:17.164Z,18.3
2019-03-29T12:52:19.214Z,17.6
2019-03-29T12:53:21.310Z,17.6
2019-03-29T12:54:23.485Z,17.4
2019-03-29T12:55:25.563Z,17.2
2019-03-29T12:56:27.606Z,17.4
2019-03-29T12:57:29.664Z,17.9
2019-03-29T12:58:31.718Z,17.3
2019-03-29T12:59:34.352Z,17.7
2019-03-29T13:00:36.425Z,17.9
2019-03-29T13:01:41.821Z,18.1
2019-03-29T13:02:43.868Z,17.6
2019-03-29T13:03:45.917Z,17.5
2019-03-29T13:04:48.786Z,17.1
2019-03-29T13:05:50.862Z,16.8
2019-03-29T13:06:53.198Z,17
2019-03-29T13:07:55.534Z,17.1
2019-03-29T13:08:57.608Z,17.5
2019-03-29T13:09:59.955Z,17.1
2019-03-29T13:11:02.366Z,17.1
2019-03-29T13:12:04.978Z,17.3
2019-03-29T13:13:07.056Z,17.4
2019-03-29T13:14:11.883Z,17.7
2019-03-29T13:15:14.526Z,17.8
2019-03-29T13:16:16.598Z,17.9
2019-03-29T13:17:18.646Z,18.3
2019-03-29T13:18:20.774Z,18.5
2019-03-29T13:19:22.821Z,18.4
2019-03-29T13:20:24.873Z,18.1
2019-03-29T13:21:26.919Z,18.2
2019-03-29T13:22:28.979Z,18.3
2019-03-29T13:23:31.037Z,17.9
2019-03-29T13:24:33.110Z,17.7
2019-03-29T13:25:35.168Z,17.7
2019-03-29T13:26:37.509Z,17.7
2019-03-29T13:27:39.574Z,18.1
2019-03-29T13:28:41.636Z,17.9
2019-03-29T13:29:43.736Z,17.7
2019-03-29T13:30:45.810Z,17.5
2019-03-29T13:31:48.140Z,17.8
2019-03-29T13:32:50.190Z,17.9
2019-03-29T13:33:52.266Z,18.2
2019-03-29T13:34:54.315Z,18.3
2019-03-29T13:35:56.370Z,18.6
2019-03-29T13:36:58.415Z,18.6
2019-03-29T13:38:00.489Z,18.6
2019-03-29T13:39:02.556Z,18.5
2019-03-29T13:40:04.954Z,18.5
2019-03-29T13:41:08.605Z,18.3
2019-03-29T13:42:10.647Z,18.5
2019-03-29T13:43:12.713Z,18
2019-03-29T13:44:29.130Z,17.9
2019-03-29T13:45:31.221Z,17.5
2019-03-29T13:46:33.293Z,17.5
2019-03-29T13:47:35.361Z,17.6
2019-03-29T13:48:37.416Z,17.5
2019-03-29T13:49:39.510Z,17.6
2019-03-29T13:50:41.581Z,17.9
2019-03-29T13:51:43.935Z,18
2019-03-29T13:52:46.003Z,18.4
2019-03-29T13:53:48.457Z,18.3
2019-03-29T13:54:50.575Z,18.1
2019-03-29T13:55:52.626Z,18.1
2019-03-29T13:56:54.683Z,18
2019-03-29T13:57:56.744Z,17.9
2019-03-29T13:58:58.797Z,17.7
2019-03-29T14:00:01.061Z,17.6
2019-03-29T14:01:03.110Z,17.4
2019-03-29T14:02:05.155Z,17.3
2019-03-29T14:03:07.238Z,17.5
2019-03-29T14:04:09.298Z,17.5
2019-03-29T14:05:11.349Z,17.5
2019-03-29T14:06:13.698Z,17.4
2019-03-29T14:07:15.738Z,17.5
2019-03-29T14:08:17.801Z,17.6
2019-03-29T14:09:19.856Z,17.5
2019-03-29T14:10:21.926Z,17.6
2019-03-29T14:11:23.967Z,17.9
2019-03-29T14:12:26.043Z,18.2
2019-03-29T14:13:28.103Z,18.3
2019-03-29T14:14:40.064Z,18.4
2019-03-29T14:15:42.127Z,18.5
2019-03-29T14:16:44.457Z,18.6
2019-03-29T14:17:46.516Z,17.9